Time;durP1;ratioP1;P1;durP2;ratioP2;P2;SDS_P1;SDS_P2;PMS_P1;PMS_P2;Temp;Humidity;BMP_temperature;BMP_pressure;BME280_temperature;BME280_humidity;BME280_pressure;Samples;Min_cycle;Max_cycle;Signal;HPM_P1;HPM_P2
2023/01/27 00:01:57;;;;;;;0.70;0.30;;;;;;;;;;5072964;28;20435;-81
2023/01/27 00:04:22;;;;;;;1.40;0.43;;;;;;;;;;5072521;28;20105;-81
2023/01/27 00:06:47;;;;;;;1.37;0.50;;;;;;;;;;5072523;28;20031;-80
2023/01/27 00:09:12;;;;;;;1.97;0.40;;;;;;;;;;5073879;28;20021;-80
2023/01/27 00:14:22;;;;;;;2.77;0.40;;;;;;;;;;5064371;28;20032;-81
2023/01/27 00:16:47;;;;;;;3.87;0.60;;;;;;;;;;5071556;28;20024;-80
2023/01/27 00:19:12;;;;;;;1.43;0.50;;;;;;;;;;5071129;28;20059;-80
2023/01/27 00:24:36;;;;;;;0.83;0.47;;;;;;;;;;5060052;28;20020;-81
2023/01/27 00:27:07;;;;;;;2.57;1.10;;;;;;;;;;5066335;28;20025;-80
2023/01/27 00:29:33;;;;;;;4.63;0.73;;;;;;;;;;5071685;28;20035;-80
2023/01/27 00:34:42;;;;;;;0.87;0.50;;;;;;;;;;5073247;28;20039;-80
2023/01/27 00:37:07;;;;;;;1.93;0.50;;;;;;;;;;5071051;28;20020;-81
2023/01/27 00:39:32;;;;;;;2.27;0.70;;;;;;;;;;5071691;28;20021;-80
2023/01/27 00:41:57;;;;;;;5.10;0.40;;;;;;;;;;5072002;28;20020;-80
2023/01/27 00:44:23;;;;;;;1.37;0.43;;;;;;;;;;5069705;28;20043;-81
2023/01/27 00:46:48;;;;;;;0.50;0.20;;;;;;;;;;5071744;28;20019;-80
2023/01/27 00:49:13;;;;;;;1.70;0.33;;;;;;;;;;5072169;28;20420;-81
2023/01/27 00:51:39;;;;;;;0.70;0.30;;;;;;;;;;5070757;28;20020;-81
2023/01/27 00:54:05;;;;;;;0.50;0.40;;;;;;;;;;5071358;28;20031;-80
2023/01/27 00:56:30;;;;;;;5.20;0.63;;;;;;;;;;5070467;28;20395;-81
2023/01/27 00:58:55;;;;;;;2.23;0.43;;;;;;;;;;5070673;28;20149;-80
2023/01/27 01:01:20;;;;;;;0.57;0.50;;;;;;;;;;5071581;28;20033;-81
2023/01/27 01:03:46;;;;;;;0.67;0.33;;;;;;;;;;5071444;28;20028;-81
2023/01/27 01:06:13;;;;;;;5.63;0.40;;;;;;;;;;5071594;28;20017;-81
2023/01/27 01:08:38;;;;;;;3.30;0.53;;;;;;;;;;5070434;28;20027;-81
2023/01/27 01:11:04;;;;;;;1.20;0.30;;;;;;;;;;5072700;28;20099;-81
2023/01/27 01:13:30;;;;;;;0.70;0.30;;;;;;;;;;5071243;28;20017;-81
2023/01/27 01:15:56;;;;;;;2.27;0.60;;;;;;;;;;5071138;28;20534;-80
2023/01/27 01:18:21;;;;;;;5.17;0.43;;;;;;;;;;5072565;28;20099;-81
2023/01/27 01:20:46;;;;;;;4.00;0.50;;;;;;;;;;5069674;28;20032;-81
2023/01/27 01:23:12;;;;;;;2.70;0.70;;;;;;;;;;5071328;28;20476;-81
2023/01/27 01:25:38;;;;;;;1.00;0.40;;;;;;;;;;5070129;28;20391;-81
2023/01/27 01:28:04;;;;;;;2.63;0.70;;;;;;;;;;5070660;28;20490;-81
2023/01/27 01:30:29;;;;;;;0.80;0.30;;;;;;;;;;5070780;28;20574;-81
2023/01/27 01:32:55;;;;;;;0.93;0.50;;;;;;;;;;5070899;28;20102;-81
2023/01/27 01:35:21;;;;;;;0.70;0.50;;;;;;;;;;5070560;28;20119;-81
2023/01/27 01:37:46;;;;;;;1.97;0.60;;;;;;;;;;5069837;28;20036;-80
2023/01/27 01:40:12;;;;;;;2.87;0.57;;;;;;;;;;5072043;28;20021;-80
2023/01/27 01:42:50;;;;;;;2.03;0.90;;;;;;;;;;5070935;28;20024;-80
2023/01/27 01:45:31;;;;;;;0.20;0.20;;;;;;;;;;5070514;28;20101;-81
2023/01/27 01:48:16;;;;;;;0.87;0.33;;;;;;;;;;5070657;28;20024;-81
2023/01/27 01:50:44;;;;;;;2.13;0.47;;;;;;;;;;5065397;28;20037;-80
2023/01/27 01:53:09;;;;;;;2.20;0.57;;;;;;;;;;5066078;28;20391;-80
2023/01/27 01:55:36;;;;;;;1.43;0.57;;;;;;;;;;5070463;28;20024;-81
2023/01/27 01:58:01;;;;;;;3.37;0.30;;;;;;;;;;5070497;28;20036;-80
2023/01/27 02:00:27;;;;;;;1.00;0.57;;;;;;;;;;5069311;28;20391;-80
2023/01/27 02:02:53;;;;;;;1.77;0.73;;;;;;;;;;5069948;28;20031;-81
2023/01/27 02:05:23;;;;;;;1.40;1.03;;;;;;;;;;5069452;28;20027;-80
2023/01/27 02:07:48;;;;;;;3.27;1.03;;;;;;;;;;5069870;28;20024;-80
2023/01/27 02:10:14;;;;;;;1.20;0.60;;;;;;;;;;5069268;28;20036;-81
2023/01/27 02:12:39;;;;;;;1.10;0.60;;;;;;;;;;5069560;28;20115;-80
2023/01/27 02:15:05;;;;;;;0.80;0.40;;;;;;;;;;5070040;28;20459;-80
2023/01/27 02:17:30;;;;;;;3.40;0.67;;;;;;;;;;5069343;28;20097;-81
2023/01/27 02:20:13;;;;;;;3.47;0.90;;;;;;;;;;5069842;28;20032;-80
2023/01/27 02:22:47;;;;;;;1.03;0.50;;;;;;;;;;5070327;28;20024;-81
2023/01/27 02:25:22;;;;;;;2.83;0.40;;;;;;;;;;5068774;28;20122;-80
2023/01/27 02:27:47;;;;;;;0.73;0.50;;;;;;;;;;5070031;28;20036;-81
2023/01/27 02:30:12;;;;;;;1.40;0.67;;;;;;;;;;5070048;28;20471;-81
2023/01/27 02:32:38;;;;;;;2.40;0.77;;;;;;;;;;5070228;28;20476;-81
2023/01/27 02:35:03;;;;;;;0.70;0.50;;;;;;;;;;5071460;28;20616;-81
2023/01/27 02:37:29;;;;;;;2.90;0.60;;;;;;;;;;5068084;28;20035;-81
2023/01/27 02:39:55;;;;;;;1.30;0.60;;;;;;;;;;5068910;28;20043;-90
2023/01/27 02:42:20;;;;;;;1.27;0.60;;;;;;;;;;5071316;28;20013;-91
2023/01/27 02:44:45;;;;;;;2.17;1.00;;;;;;;;;;5070202;28;20016;-91
2023/01/27 02:47:14;;;;;;;4.50;0.70;;;;;;;;;;5071371;28;20013;-91
2023/01/27 02:49:39;;;;;;;5.10;0.83;;;;;;;;;;5070735;28;20024;-90
2023/01/27 02:52:04;;;;;;;3.00;0.60;;;;;;;;;;5072675;28;20035;-90
2023/01/27 02:54:29;;;;;;;1.63;0.57;;;;;;;;;;5071115;28;20472;-90
2023/01/27 02:56:55;;;;;;;2.97;0.80;;;;;;;;;;5071179;28;20012;-91
2023/01/27 02:59:20;;;;;;;5.00;0.73;;;;;;;;;;5071202;28;20021;-90
2023/01/27 03:01:45;;;;;;;1.77;1.00;;;;;;;;;;5067631;28;20043;-90
2023/01/27 03:04:10;;;;;;;0.97;0.57;;;;;;;;;;5059895;28;20348;-91
2023/01/27 03:06:36;;;;;;;6.53;1.00;;;;;;;;;;5071373;28;20016;-91
2023/01/27 03:09:01;;;;;;;3.23;0.90;;;;;;;;;;5071024;28;20104;-90
2023/01/27 03:14:10;;;;;;;1.10;0.73;;;;;;;;;;5059082;28;20112;-90
2023/01/27 03:19:19;;;;;;;2.33;0.60;;;;;;;;;;5073905;28;20039;-92
2023/01/27 03:21:45;;;;;;;4.73;1.03;;;;;;;;;;5075641;28;20020;-91
2023/01/27 03:24:10;;;;;;;1.33;0.40;;;;;;;;;;5073994;28;20063;-90
2023/01/27 03:26:37;;;;;;;1.40;0.57;;;;;;;;;;5073711;28;20027;-90
2023/01/27 03:31:46;;;;;;;1.00;0.60;;;;;;;;;;5076193;28;20415;-91
2023/01/27 03:34:11;;;;;;;1.10;0.43;;;;;;;;;;5074212;28;20028;-91
2023/01/27 03:47:32;;;;;;;0.67;0.47;;;;;;;;;;5069940;28;20119;-90
2023/01/27 03:49:57;;;;;;;2.27;0.80;;;;;;;;;;5073219;28;20060;-91
2023/01/27 03:52:23;;;;;;;1.27;0.67;;;;;;;;;;5075442;28;20454;-90
2023/01/27 03:54:48;;;;;;;2.33;0.90;;;;;;;;;;5073910;28;20110;-90
2023/01/27 03:57:13;;;;;;;1.67;1.00;;;;;;;;;;5074062;28;20019;-91
2023/01/27 03:59:38;;;;;;;2.43;1.30;;;;;;;;;;5073980;28;20040;-90
2023/01/27 04:07:35;;;;;;;1.70;0.60;;;;;;;;;;5075671;28;20078;-91
2023/01/27 04:10:00;;;;;;;2.27;0.70;;;;;;;;;;5073474;28;20062;-91
2023/01/27 04:12:25;;;;;;;2.87;0.70;;;;;;;;;;5073175;28;20020;-91
2023/01/27 04:14:51;;;;;;;1.37;0.70;;;;;;;;;;5073229;28;20029;-91
2023/01/27 04:17:17;;;;;;;2.87;1.17;;;;;;;;;;5075049;28;20028;-91
2023/01/27 04:19:43;;;;;;;2.00;1.03;;;;;;;;;;5073615;28;20056;-90
2023/01/27 04:22:09;;;;;;;2.47;1.10;;;;;;;;;;5073555;28;20113;-90
2023/01/27 04:24:34;;;;;;;2.13;1.00;;;;;;;;;;5071970;28;20017;-91
2023/01/27 04:27:04;;;;;;;0.60;0.47;;;;;;;;;;5072851;28;20074;-90
2023/01/27 04:29:33;;;;;;;1.43;0.60;;;;;;;;;;5058909;28;20044;-90
2023/01/27 04:31:59;;;;;;;1.73;0.83;;;;;;;;;;5073656;28;20126;-90
2023/01/27 04:34:24;;;;;;;3.30;1.33;;;;;;;;;;5073060;28;20019;-91
2023/01/27 04:36:51;;;;;;;0.53;0.40;;;;;;;;;;5072742;28;20394;-90
2023/01/27 04:39:17;;;;;;;3.83;0.67;;;;;;;;;;5073176;28;20032;-91
2023/01/27 04:41:42;;;;;;;3.43;1.00;;;;;;;;;;5073440;28;20070;-90
2023/01/27 04:44:09;;;;;;;1.20;0.57;;;;;;;;;;5072176;28;20051;-90
2023/01/27 04:46:34;;;;;;;1.13;0.67;;;;;;;;;;5060518;28;20028;-90
2023/01/27 04:49:00;;;;;;;1.83;1.00;;;;;;;;;;5070179;28;20021;-90
2023/01/27 04:51:26;;;;;;;3.30;1.37;;;;;;;;;;5074230;28;20082;-90
2023/01/27 04:53:51;;;;;;;1.33;0.90;;;;;;;;;;5072992;28;20017;-90
2023/01/27 04:56:30;;;;;;;3.17;1.13;;;;;;;;;;5074109;28;20067;-90
2023/01/27 04:58:59;;;;;;;3.17;0.90;;;;;;;;;;5072665;28;20448;-90
2023/01/27 05:01:25;;;;;;;3.63;0.97;;;;;;;;;;5071781;28;20099;-90
2023/01/27 05:03:50;;;;;;;1.63;0.90;;;;;;;;;;5073970;28;20020;-90
2023/01/27 05:06:16;;;;;;;2.07;1.03;;;;;;;;;;5072627;28;20437;-90
2023/01/27 05:08:41;;;;;;;1.90;0.80;;;;;;;;;;5074031;28;20031;-90
2023/01/27 05:11:06;;;;;;;2.17;0.93;;;;;;;;;;5073948;28;20037;-90
2023/01/27 05:13:32;;;;;;;2.60;1.20;;;;;;;;;;5071314;28;20020;-91
2023/01/27 05:16:07;;;;;;;1.90;1.00;;;;;;;;;;5072630;28;20020;-90
2023/01/27 05:18:33;;;;;;;3.53;1.30;;;;;;;;;;5072443;28;20016;-90
2023/01/27 05:21:00;;;;;;;2.10;1.00;;;;;;;;;;5073943;28;20039;-91
2023/01/27 05:23:34;;;;;;;3.00;1.33;;;;;;;;;;5072394;28;20021;-90
2023/01/27 05:26:05;;;;;;;2.13;0.83;;;;;;;;;;5071483;28;20070;-90
2023/01/27 05:28:31;;;;;;;1.80;0.80;;;;;;;;;;5072245;28;20047;-90
2023/01/27 05:31:00;;;;;;;2.23;0.60;;;;;;;;;;5072392;28;20024;-91
2023/01/27 05:33:25;;;;;;;2.40;1.20;;;;;;;;;;5073524;28;20459;-90
2023/01/27 05:35:51;;;;;;;1.80;0.70;;;;;;;;;;5070913;28;20027;-90
2023/01/27 05:38:16;;;;;;;3.70;1.17;;;;;;;;;;5072308;28;20024;-90
2023/01/27 05:40:41;;;;;;;2.50;1.10;;;;;;;;;;5071541;28;20013;-90
2023/01/27 05:43:06;;;;;;;5.87;1.50;;;;;;;;;;5071409;28;20539;-90
2023/01/27 05:45:31;;;;;;;4.53;1.60;;;;;;;;;;5068446;28;20028;-90
2023/01/27 05:47:57;;;;;;;2.03;0.73;;;;;;;;;;5069155;28;20485;-90
2023/01/27 05:50:22;;;;;;;4.83;1.70;;;;;;;;;;5071787;28;20157;-90
2023/01/27 05:52:47;;;;;;;2.03;0.80;;;;;;;;;;5072942;28;20022;-90
2023/01/27 05:55:12;;;;;;;4.17;1.20;;;;;;;;;;5071591;28;20025;-90
2023/01/27 05:57:37;;;;;;;1.80;0.87;;;;;;;;;;5071834;28;20028;-90
2023/01/27 06:00:03;;;;;;;6.03;1.13;;;;;;;;;;5069853;28;20040;-90
2023/01/27 06:02:28;;;;;;;0.67;0.43;;;;;;;;;;5072418;28;20089;-90
2023/01/27 06:04:53;;;;;;;2.43;1.60;;;;;;;;;;5071298;28;20111;-90
2023/01/27 06:07:18;;;;;;;2.60;0.87;;;;;;;;;;5071511;28;20021;-89
2023/01/27 06:09:44;;;;;;;3.97;1.97;;;;;;;;;;5069988;28;20463;-90
2023/01/27 06:12:09;;;;;;;0.70;0.20;;;;;;;;;;5071475;28;20070;-89
2023/01/27 06:14:34;;;;;;;2.30;1.00;;;;;;;;;;5071225;28;20031;-90
2023/01/27 06:16:59;;;;;;;6.77;1.30;;;;;;;;;;5071410;28;20021;-90
2023/01/27 06:19:25;;;;;;;1.45;0.73;;;;;;;;;;5071400;28;20541;-90
2023/01/27 06:21:50;;;;;;;4.43;1.43;;;;;;;;;;5070561;28;20121;-90
2023/01/27 06:24:15;;;;;;;5.87;1.60;;;;;;;;;;5071333;28;20028;-90
2023/01/27 06:26:40;;;;;;;4.40;1.70;;;;;;;;;;5071889;28;20017;-90
2023/01/27 06:29:05;;;;;;;4.53;1.37;;;;;;;;;;5072336;28;20437;-90
2023/01/27 06:31:31;;;;;;;3.80;1.40;;;;;;;;;;5070716;28;20081;-89
2023/01/27 06:33:56;;;;;;;4.30;1.27;;;;;;;;;;5071375;28;20444;-90
2023/01/27 06:36:21;;;;;;;5.07;2.23;;;;;;;;;;5071320;28;20438;-90
2023/01/27 06:38:47;;;;;;;3.87;1.47;;;;;;;;;;5071580;28;20062;-89
2023/01/27 06:41:12;;;;;;;3.30;1.10;;;;;;;;;;5072527;28;20020;-89
2023/01/27 06:43:38;;;;;;;2.80;1.37;;;;;;;;;;5070136;28;20024;-89
2023/01/27 06:46:03;;;;;;;3.23;1.30;;;;;;;;;;5058992;28;20021;-90
2023/01/27 06:48:28;;;;;;;6.97;0.93;;;;;;;;;;5071252;28;20297;-89
2023/01/27 06:50:54;;;;;;;4.17;1.50;;;;;;;;;;5071045;28;20055;-90
2023/01/27 06:53:19;;;;;;;4.13;1.60;;;;;;;;;;5073110;28;20803;-89
2023/01/27 06:55:45;;;;;;;7.07;1.60;;;;;;;;;;5074061;28;20040;-89
2023/01/27 06:58:11;;;;;;;3.00;1.10;;;;;;;;;;5074905;28;20472;-89
2023/01/27 07:00:36;;;;;;;4.27;1.80;;;;;;;;;;5076324;28;20031;-89
2023/01/27 07:03:02;;;;;;;7.90;1.60;;;;;;;;;;5074716;28;20487;-89
2023/01/27 07:05:27;;;;;;;4.27;1.60;;;;;;;;;;5074915;28;20131;-89
2023/01/27 07:07:52;;;;;;;5.10;1.47;;;;;;;;;;5073659;28;20028;-89
2023/01/27 07:10:18;;;;;;;5.80;1.60;;;;;;;;;;5074492;28;20020;-89
2023/01/27 07:12:43;;;;;;;3.80;1.50;;;;;;;;;;5074698;28;20048;-89
2023/01/27 07:15:08;;;;;;;3.30;1.43;;;;;;;;;;5074326;28;20028;-90
2023/01/27 07:17:34;;;;;;;3.27;1.40;;;;;;;;;;5075786;28;20016;-89
2023/01/27 07:19:59;;;;;;;4.23;2.03;;;;;;;;;;5073384;28;20036;-89
2023/01/27 07:22:25;;;;;;;4.67;1.50;;;;;;;;;;5075740;28;20092;-89
2023/01/27 07:24:50;;;;;;;4.37;1.73;;;;;;;;;;5060582;28;20123;-89
2023/01/27 07:27:15;;;;;;;4.73;1.63;;;;;;;;;;5074099;28;20490;-89
2023/01/27 07:29:40;;;;;;;4.60;1.87;;;;;;;;;;5074312;28;20023;-89
2023/01/27 07:32:06;;;;;;;3.93;1.70;;;;;;;;;;5060167;28;20119;-89
2023/01/27 07:34:31;;;;;;;7.47;2.27;;;;;;;;;;5073433;28;20097;-89
2023/01/27 07:36:56;;;;;;;5.90;2.00;;;;;;;;;;5064062;28;20039;-88
2023/01/27 07:39:21;;;;;;;6.30;1.97;;;;;;;;;;5072446;28;20438;-89
2023/01/27 07:41:47;;;;;;;5.67;1.90;;;;;;;;;;5074016;28;20024;-89
2023/01/27 07:44:12;;;;;;;5.00;1.70;;;;;;;;;;5072735;28;20021;-89
2023/01/27 07:46:38;;;;;;;6.17;2.33;;;;;;;;;;5073474;28;20386;-89
2023/01/27 07:49:03;;;;;;;5.43;2.47;;;;;;;;;;5073922;28;20136;-89
2023/01/27 07:51:28;;;;;;;8.07;2.23;;;;;;;;;;5075204;28;20044;-89
2023/01/27 07:53:53;;;;;;;4.57;2.17;;;;;;;;;;5073594;28;20024;-89
2023/01/27 07:56:18;;;;;;;5.07;2.13;;;;;;;;;;5072648;28;20720;-89
2023/01/27 07:58:44;;;;;;;5.60;2.40;;;;;;;;;;5073545;28;20397;-89
2023/01/27 08:01:10;;;;;;;7.37;2.30;;;;;;;;;;5073710;28;20097;-89
2023/01/27 08:03:35;;;;;;;6.40;2.30;;;;;;;;;;5073510;28;20071;-89
2023/01/27 08:06:03;;;;;;;5.07;2.10;;;;;;;;;;5072750;28;20436;-89
2023/01/27 08:08:28;;;;;;;4.80;1.93;;;;;;;;;;5072857;28;20016;-89
2023/01/27 08:10:57;;;;;;;7.00;2.83;;;;;;;;;;5074861;28;20031;-89
2023/01/27 08:13:22;;;;;;;4.90;1.70;;;;;;;;;;5072968;28;20016;-89
2023/01/27 08:15:53;;;;;;;7.63;2.23;;;;;;;;;;5073253;28;20043;-89
2023/01/27 08:18:18;;;;;;;5.60;2.43;;;;;;;;;;5072227;28;20017;-89
2023/01/27 08:20:44;;;;;;;5.87;2.37;;;;;;;;;;5072972;28;20035;-89
2023/01/27 08:23:09;;;;;;;5.20;1.83;;;;;;;;;;5072121;28;20020;-89
2023/01/27 08:25:34;;;;;;;6.30;1.80;;;;;;;;;;5072533;28;20429;-89
2023/01/27 08:27:59;;;;;;;3.33;1.50;;;;;;;;;;5074335;28;20042;-89
2023/01/27 08:30:25;;;;;;;6.20;2.73;;;;;;;;;;5072134;28;20039;-89
2023/01/27 08:32:50;;;;;;;4.10;1.30;;;;;;;;;;5072871;28;20498;-89
2023/01/27 08:35:15;;;;;;;4.30;1.67;;;;;;;;;;5073015;28;20360;-89
2023/01/27 08:37:41;;;;;;;4.20;1.90;;;;;;;;;;5073324;28;20046;-89
2023/01/27 08:40:06;;;;;;;7.00;2.17;;;;;;;;;;5072334;28;20028;-89
2023/01/27 08:42:31;;;;;;;4.30;2.00;;;;;;;;;;5072880;28;20017;-88
2023/01/27 08:44:57;;;;;;;5.10;1.70;;;;;;;;;;5069448;28;20020;-89
2023/01/27 08:47:22;;;;;;;4.17;1.87;;;;;;;;;;5066481;28;20459;-89
2023/01/27 08:49:47;;;;;;;4.50;1.93;;;;;;;;;;5072632;28;20016;-89
2023/01/27 08:52:13;;;;;;;7.63;2.37;;;;;;;;;;5072368;28;20503;-89
2023/01/27 08:54:38;;;;;;;4.60;1.60;;;;;;;;;;5072187;28;20052;-89
2023/01/27 08:57:03;;;;;;;2.93;1.13;;;;;;;;;;5072457;28;20025;-89
2023/01/27 08:59:28;;;;;;;2.03;0.83;;;;;;;;;;5072518;28;20056;-89
2023/01/27 09:01:54;;;;;;;3.80;1.90;;;;;;;;;;5069641;28;20107;-89
2023/01/27 09:04:20;;;;;;;3.83;1.70;;;;;;;;;;5072556;28;20020;-89
2023/01/27 09:06:47;;;;;;;2.83;1.53;;;;;;;;;;5072522;28;20356;-90
2023/01/27 09:09:12;;;;;;;5.40;1.90;;;;;;;;;;5072521;28;20094;-90
2023/01/27 09:11:40;;;;;;;2.97;1.27;;;;;;;;;;5073206;28;20456;-89
2023/01/27 09:14:05;;;;;;;3.13;1.37;;;;;;;;;;5072050;28;20017;-89
2023/01/27 09:16:30;;;;;;;4.83;1.43;;;;;;;;;;5072584;28;20578;-89
2023/01/27 09:18:57;;;;;;;3.90;1.73;;;;;;;;;;5072213;28;20052;-90
2023/01/27 09:21:22;;;;;;;4.43;1.73;;;;;;;;;;5072409;28;20077;-89
2023/01/27 09:23:47;;;;;;;4.17;1.37;;;;;;;;;;5071150;28;20020;-90
2023/01/27 09:26:13;;;;;;;2.77;1.27;;;;;;;;;;5071488;28;20138;-89
2023/01/27 09:28:38;;;;;;;2.87;1.33;;;;;;;;;;5071849;28;20397;-89
2023/01/27 09:31:03;;;;;;;4.23;1.50;;;;;;;;;;5072020;28;20467;-89
2023/01/27 09:33:28;;;;;;;2.63;1.30;;;;;;;;;;5072218;28;20097;-90
2023/01/27 09:35:56;;;;;;;2.37;1.17;;;;;;;;;;5071211;28;20425;-90
2023/01/27 09:38:23;;;;;;;5.80;2.17;;;;;;;;;;5071914;28;20467;-89
2023/01/27 09:41:07;;;;;;;4.17;1.70;;;;;;;;;;5071411;28;20100;-89
2023/01/27 09:43:40;;;;;;;2.67;0.80;;;;;;;;;;5071465;28;20013;-89
2023/01/27 09:46:10;;;;;;;4.13;1.47;;;;;;;;;;5070185;28;20021;-89
2023/01/27 09:48:35;;;;;;;3.27;1.60;;;;;;;;;;5071664;28;20412;-89
2023/01/27 09:51:06;;;;;;;4.33;2.03;;;;;;;;;;5071777;28;20028;-89
2023/01/27 09:53:58;;;;;;;3.47;1.80;;;;;;;;;;5071716;28;20012;-89
2023/01/27 09:56:45;;;;;;;3.30;1.30;;;;;;;;;;5071762;28;20031;-89
2023/01/27 09:59:33;;;;;;;2.47;1.47;;;;;;;;;;5070808;28;20056;-89
2023/01/27 10:02:12;;;;;;;2.53;1.30;;;;;;;;;;5075556;28;20024;-89
2023/01/27 10:04:50;;;;;;;3.67;1.53;;;;;;;;;;5071063;28;20097;-89
2023/01/27 10:07:20;;;;;;;3.93;1.30;;;;;;;;;;5072815;28;20428;-90
2023/01/27 10:09:46;;;;;;;3.60;1.87;;;;;;;;;;5068061;28;20016;-90
2023/01/27 10:12:11;;;;;;;1.57;0.77;;;;;;;;;;5070035;28;20491;-90
2023/01/27 10:14:45;;;;;;;3.40;1.70;;;;;;;;;;5070774;28;20119;-90
2023/01/27 10:17:17;;;;;;;3.27;1.23;;;;;;;;;;5056839;28;20416;-90
2023/01/27 10:19:42;;;;;;;4.50;1.53;;;;;;;;;;5071433;28;20099;-90
2023/01/27 10:22:18;;;;;;;3.77;1.33;;;;;;;;;;5071077;28;20032;-90
2023/01/27 10:25:02;;;;;;;3.43;1.10;;;;;;;;;;5071494;28;20025;-90
2023/01/27 10:27:31;;;;;;;3.07;1.30;;;;;;;;;;5084158;28;20017;-90
2023/01/27 10:29:59;;;;;;;5.57;1.47;;;;;;;;;;5069933;28;20047;-90
2023/01/27 10:32:26;;;;;;;3.67;1.83;;;;;;;;;;5070341;28;20051;-90
2023/01/27 10:34:54;;;;;;;3.93;1.60;;;;;;;;;;5070503;28;20376;-90
2023/01/27 10:37:39;;;;;;;2.90;1.60;;;;;;;;;;5072173;28;20764;-90
2023/01/27 10:40:10;;;;;;;2.40;1.20;;;;;;;;;;5071036;28;20020;-89
2023/01/27 10:42:51;;;;;;;3.50;1.90;;;;;;;;;;5071288;28;20112;-90
2023/01/27 10:45:16;;;;;;;1.07;0.63;;;;;;;;;;5069003;28;20024;-89
2023/01/27 10:47:52;;;;;;;2.70;1.13;;;;;;;;;;5072572;28;20077;-90
2023/01/27 10:50:19;;;;;;;2.83;1.50;;;;;;;;;;5071381;28;20021;-90
2023/01/27 10:52:46;;;;;;;4.70;1.90;;;;;;;;;;5070887;28;20459;-89
2023/01/27 10:55:21;;;;;;;3.17;1.20;;;;;;;;;;5069928;28;20020;-90
2023/01/27 10:57:52;;;;;;;2.43;1.30;;;;;;;;;;5070919;28;20029;-90
2023/01/27 11:00:28;;;;;;;2.73;1.30;;;;;;;;;;5071221;28;20421;-90
2023/01/27 11:02:56;;;;;;;4.00;1.40;;;;;;;;;;5071264;28;20020;-90
2023/01/27 11:05:26;;;;;;;2.07;1.20;;;;;;;;;;5071062;28;20016;-90
2023/01/27 11:07:53;;;;;;;3.27;1.63;;;;;;;;;;5070634;28;20494;-90
2023/01/27 11:10:19;;;;;;;3.87;1.87;;;;;;;;;;5067678;28;20024;-90
2023/01/27 11:12:50;;;;;;;2.50;0.87;;;;;;;;;;5063212;28;20028;-90
2023/01/27 11:15:18;;;;;;;3.23;1.30;;;;;;;;;;5071919;28;20020;-90
2023/01/27 11:17:52;;;;;;;2.80;1.37;;;;;;;;;;5070877;28;20127;-88
2023/01/27 11:20:25;;;;;;;3.50;1.40;;;;;;;;;;5069509;28;20024;-90
2023/01/27 11:23:11;;;;;;;2.83;1.23;;;;;;;;;;5070947;28;20025;-90
2023/01/27 11:25:39;;;;;;;2.97;1.50;;;;;;;;;;5036328;28;20092;-90
2023/01/27 11:28:12;;;;;;;2.17;0.97;;;;;;;;;;5070919;28;20032;-90
2023/01/27 11:30:41;;;;;;;1.10;0.60;;;;;;;;;;5069816;28;20116;-90
2023/01/27 11:33:09;;;;;;;4.80;1.80;;;;;;;;;;5071039;28;20484;-90
2023/01/27 11:35:34;;;;;;;2.50;1.20;;;;;;;;;;5071043;28;20115;-90
2023/01/27 11:38:00;;;;;;;4.07;1.50;;;;;;;;;;5072232;28;20059;-90
2023/01/27 11:40:34;;;;;;;2.33;1.23;;;;;;;;;;5072246;28;20111;-89
2023/01/27 11:42:59;;;;;;;2.87;1.33;;;;;;;;;;5073219;28;20024;-90
2023/01/27 11:45:26;;;;;;;3.43;1.70;;;;;;;;;;5063808;28;20107;-90
2023/01/27 11:47:55;;;;;;;4.00;1.00;;;;;;;;;;5071531;28;20044;-90
2023/01/27 11:50:22;;;;;;;3.70;1.20;;;;;;;;;;5074217;28;20020;-90
2023/01/27 11:52:49;;;;;;;3.83;1.30;;;;;;;;;;5074554;28;20021;-90
2023/01/27 11:55:14;;;;;;;4.80;1.40;;;;;;;;;;5073739;28;20027;-90
2023/01/27 11:57:41;;;;;;;4.37;1.40;;;;;;;;;;5074105;28;20016;-89
2023/01/27 12:00:27;;;;;;;2.97;1.60;;;;;;;;;;5057072;28;20041;-90
2023/01/27 12:03:03;;;;;;;2.87;1.37;;;;;;;;;;5067914;28;20480;-90
2023/01/27 12:05:33;;;;;;;1.50;0.80;;;;;;;;;;5072296;28;20420;-90
2023/01/27 12:08:03;;;;;;;1.67;0.80;;;;;;;;;;5074021;28;20471;-90
2023/01/27 12:10:37;;;;;;;2.73;0.97;;;;;;;;;;5073253;28;20031;-91
2023/01/27 12:13:08;;;;;;;0.90;0.70;;;;;;;;;;5070897;28;20021;-90
2023/01/27 12:15:34;;;;;;;2.37;1.10;;;;;;;;;;5073918;28;20078;-90
2023/01/27 12:18:02;;;;;;;4.73;1.50;;;;;;;;;;5073325;28;20020;-91
2023/01/27 12:20:36;;;;;;;2.23;1.00;;;;;;;;;;5073386;28;20078;-90
2023/01/27 12:23:16;;;;;;;2.37;1.03;;;;;;;;;;5073527;28;20063;-90
2023/01/27 12:25:46;;;;;;;1.93;1.03;;;;;;;;;;5059256;28;20009;-89
2023/01/27 12:28:21;;;;;;;3.87;1.30;;;;;;;;;;5072650;28;20024;-90
2023/01/27 12:30:46;;;;;;;3.53;1.50;;;;;;;;;;5073301;28;20036;-90
2023/01/27 12:33:19;;;;;;;3.13;1.00;;;;;;;;;;5073814;28;20040;-90
2023/01/27 12:35:44;;;;;;;;;;;;;;;;;;5072851;28;20039;-90
2023/01/27 12:38:16;;;;;;;2.10;1.00;;;;;;;;;;5073468;28;19905;-90
2023/01/27 12:40:42;;;;;;;2.50;1.13;;;;;;;;;;5073065;28;20277;-90
2023/01/27 12:43:10;;;;;;;3.93;1.60;;;;;;;;;;5073363;28;20016;-90
2023/01/27 12:45:38;;;;;;;3.57;1.43;;;;;;;;;;5072478;28;20428;-90
2023/01/27 12:48:13;;;;;;;6.00;1.63;;;;;;;;;;5073244;28;20021;-90
2023/01/27 12:50:41;;;;;;;3.60;1.70;;;;;;;;;;5071766;28;20378;-90
2023/01/27 12:53:13;;;;;;;4.03;1.70;;;;;;;;;;5072841;28;20103;-90
2023/01/27 12:55:38;;;;;;;;;;;;;;;;;;5072861;28;20039;-90
2023/01/27 12:58:04;;;;;;;2.83;1.30;;;;;;;;;;5072960;28;19940;-90
2023/01/27 13:00:29;;;;;;;1.97;1.13;;;;;;;;;;5064968;28;20060;-90
2023/01/27 13:03:05;;;;;;;2.90;1.10;;;;;;;;;;5072975;28;20029;-90
2023/01/27 13:05:38;;;;;;;3.53;1.30;;;;;;;;;;5072800;28;20062;-90
2023/01/27 13:08:04;;;;;;;2.63;1.00;;;;;;;;;;5072882;28;20077;-90
2023/01/27 13:10:29;;;;;;;2.90;1.30;;;;;;;;;;5072288;28;20020;-90
2023/01/27 13:12:56;;;;;;;3.17;1.50;;;;;;;;;;5071832;28;20070;-89
2023/01/27 13:15:23;;;;;;;2.63;0.90;;;;;;;;;;5072782;28;20657;-90
2023/01/27 13:17:55;;;;;;;3.97;1.50;;;;;;;;;;5073907;28;20027;-90
2023/01/27 13:20:32;;;;;;;3.00;1.58;;;;;;;;;;5072479;28;20601;-90
2023/01/27 13:23:16;;;;;;;3.40;1.50;;;;;;;;;;5072675;28;20024;-90
2023/01/27 13:25:53;;;;;;;2.83;1.30;;;;;;;;;;5066696;28;20027;-90
2023/01/27 13:28:26;;;;;;;2.30;1.30;;;;;;;;;;5073584;28;20032;-90
2023/01/27 13:30:55;;;;;;;3.87;1.17;;;;;;;;;;5072389;28;20488;-90
2023/01/27 13:33:20;;;;;;;3.37;1.47;;;;;;;;;;5072373;28;20020;-89
2023/01/27 13:36:05;;;;;;;3.13;1.30;;;;;;;;;;5071916;28;20112;-89
2023/01/27 13:38:40;;;;;;;1.87;1.00;;;;;;;;;;5061542;28;20040;-89
2023/01/27 13:41:07;;;;;;;2.93;1.40;;;;;;;;;;5072184;28;20135;-90
2023/01/27 13:43:35;;;;;;;2.13;0.83;;;;;;;;;;5068766;28;20025;-90
2023/01/27 13:46:10;;;;;;;2.70;1.57;;;;;;;;;;5054857;28;20032;-89
2023/01/27 13:48:51;;;;;;;2.97;1.43;;;;;;;;;;5072825;28;20020;-90
2023/01/27 13:51:18;;;;;;;2.10;0.97;;;;;;;;;;5072031;28;20021;-90
2023/01/27 13:53:46;;;;;;;4.20;1.60;;;;;;;;;;5072119;28;20177;-90
2023/01/27 13:56:26;;;;;;;2.77;1.20;;;;;;;;;;5072035;28;20035;-90
2023/01/27 13:58:52;;;;;;;3.00;1.43;;;;;;;;;;5070986;28;20078;-89
2023/01/27 14:01:20;;;;;;;3.13;1.13;;;;;;;;;;5071645;28;20107;-90
2023/01/27 14:04:04;;;;;;;2.67;1.30;;;;;;;;;;5071035;28;20032;-90
2023/01/27 14:06:32;;;;;;;7.10;2.47;;;;;;;;;;5071814;28;20081;-90
2023/01/27 14:09:02;;;;;;;5.43;1.80;;;;;;;;;;5073347;28;20133;-90
2023/01/27 14:11:36;;;;;;;4.20;1.93;;;;;;;;;;5071072;28;20063;-90
2023/01/27 14:14:07;;;;;;;4.67;1.63;;;;;;;;;;5072904;28;20024;-90
2023/01/27 14:16:32;;;;;;;4.67;2.43;;;;;;;;;;5071709;28;20016;-90
2023/01/27 14:19:01;;;;;;;3.40;1.53;;;;;;;;;;5071561;28;20558;-90
2023/01/27 14:21:42;;;;;;;3.83;1.37;;;;;;;;;;5070935;28;20110;-89
2023/01/27 14:24:23;;;;;;;3.70;1.57;;;;;;;;;;5060055;28;20125;-90
2023/01/27 14:26:51;;;;;;;3.57;1.60;;;;;;;;;;5072745;28;20017;-90
2023/01/27 14:29:38;;;;;;;4.77;2.27;;;;;;;;;;5071587;28;20020;-90
2023/01/27 14:32:03;;;;;;;4.10;1.53;;;;;;;;;;5071715;28;20029;-89
2023/01/27 14:34:33;;;;;;;5.93;1.53;;;;;;;;;;5070878;28;20031;-90
2023/01/27 14:37:02;;;;;;;3.33;1.20;;;;;;;;;;5071645;28;20124;-91
2023/01/27 14:39:30;;;;;;;3.87;1.53;;;;;;;;;;5071453;28;20017;-90
2023/01/27 14:41:59;;;;;;;2.93;1.37;;;;;;;;;;5071506;28;20035;-90
2023/01/27 14:44:28;;;;;;;2.37;1.30;;;;;;;;;;5070517;28;20028;-90
2023/01/27 14:47:11;;;;;;;2.63;1.40;;;;;;;;;;5072465;28;20030;-90
2023/01/27 14:49:44;;;;;;;2.90;1.20;;;;;;;;;;5071305;28;20482;-90
2023/01/27 14:52:09;;;;;;;1.70;1.03;;;;;;;;;;5071355;28;20024;-89
2023/01/27 14:54:35;;;;;;;2.33;1.00;;;;;;;;;;5070898;28;20027;-90
2023/01/27 14:57:10;;;;;;;3.67;1.50;;;;;;;;;;5070540;28;20443;-90
2023/01/27 14:59:54;;;;;;;2.97;1.40;;;;;;;;;;5071071;28;20024;-90
2023/01/27 15:02:38;;;;;;;2.93;1.10;;;;;;;;;;5071170;28;20032;-90
2023/01/27 15:05:15;;;;;;;2.57;1.40;;;;;;;;;;5071165;28;20460;-89
2023/01/27 15:08:07;;;;;;;2.23;1.00;;;;;;;;;;5070953;28;20023;-89
2023/01/27 15:10:32;;;;;;;3.23;1.40;;;;;;;;;;5066641;28;20027;-90
2023/01/27 15:12:57;;;;;;;2.23;1.10;;;;;;;;;;5071434;28;20017;-90
2023/01/27 15:15:22;;;;;;;1.87;1.00;;;;;;;;;;5090091;28;20008;-89
2023/01/27 15:18:07;;;;;;;3.30;1.10;;;;;;;;;;5074941;28;20044;-90
2023/01/27 15:20:56;;;;;;;2.77;1.20;;;;;;;;;;5058116;28;20029;-90
2023/01/27 15:23:34;;;;;;;2.40;1.40;;;;;;;;;;5074645;28;20012;-90